Time;durP1;ratioP1;P1;durP2;ratioP2;P2;SDS_P1;SDS_P2;PMS_P1;PMS_P2;Temp;Humidity;BMP_temperature;BMP_pressure;BME280_temperature;BME280_humidity;BME280_pressure;Samples;Min_cycle;Max_cycle;Signal;HPM_P1;HPM_P2
2021/10/12 00:01:35;;;;;;;;;;;;;;;10.56;100.00;102369.31;5072509;28;20387;-51
2021/10/12 00:04:01;;;;;;;;;;;;;;;10.59;100.00;102363.94;5072977;28;20388;-50
2021/10/12 00:06:28;;;;;;;;;;;;;;;10.66;100.00;102372.41;5070947;28;19948;-48
2021/10/12 00:08:55;;;;;;;;;;;;;;;10.71;100.00;102359.09;5101583;28;19924;-57
2021/10/12 00:11:22;;;;;;;;;;;;;;;10.69;100.00;102363.53;5070229;28;19924;-57
2021/10/12 00:13:49;;;;;;;;;;;;;;;10.65;100.00;102368.94;5072683;28;19971;-57
2021/10/12 00:16:16;;;;;;;;;;;;;;;10.68;100.00;102375.00;5088023;28;20338;-57
2021/10/12 00:18:42;;;;;;;;;;;;;;;10.65;100.00;102365.47;5104560;28;20371;-58
2021/10/12 00:21:10;;;;;;;;;;;;;;;10.65;100.00;102366.31;5101964;28;19932;-53
2021/10/12 00:23:37;;;;;;;;;;;;;;;10.60;100.00;102368.25;5068876;28;19931;-46
2021/10/12 00:26:04;;;;;;;;;;;;;;;10.57;100.00;102357.88;5071316;28;19974;-57
2021/10/12 00:28:31;;;;;;;;;;;;;;;10.57;100.00;102354.41;5104550;28;20395;-57
2021/10/12 00:30:58;;;;;;;;;;;;;;;10.58;100.00;102350.81;5104788;28;19938;-57
2021/10/12 00:33:25;;;;;;;;;;;;;;;10.55;100.00;102354.47;5072306;28;20381;-57
2021/10/12 00:35:52;;;;;;;;;;;;;;;10.53;100.00;102351.03;5071228;28;19943;-57
2021/10/12 00:38:18;;;;;;;;;;;;;;;10.54;100.00;102344.84;5072433;28;19924;-58
2021/10/12 00:40:45;;;;;;;;;;;;;;;10.55;100.00;102346.56;5076100;28;19924;-57
2021/10/12 00:43:12;;;;;;;;;;;;;;;10.52;100.00;102343.22;5076008;28;19932;-58
2021/10/12 00:45:40;;;;;;;;;;;;;;;10.48;100.00;102338.09;5073918;28;19925;-57
2021/10/12 00:48:07;;;;;;;;;;;;;;;10.48;100.00;102342.47;5073538;28;19934;-58
2021/10/12 00:50:35;;;;;;;;;;;;;;;10.47;100.00;102339.00;5075665;28;20367;-58
2021/10/12 00:53:02;;;;;;;;;;;;;;;10.46;100.00;102337.28;5075757;28;19924;-57
2021/10/12 00:55:29;;;;;;;;;;;;;;;10.41;100.00;102333.13;5075882;28;19947;-58
2021/10/12 00:57:56;;;;;;;;;;;;;;;10.47;100.00;102330.22;5108466;28;19985;-58
2021/10/12 01:00:23;;;;;;;;;;;;;;;10.47;100.00;102322.34;5075812;28;19978;-57
2021/10/12 01:02:50;;;;;;;;;;;;;;;10.46;100.00;102325.91;5108083;28;19924;-57
2021/10/12 01:05:17;;;;;;;;;;;;;;;10.49;100.00;102318.72;5074294;28;19928;-57
2021/10/12 01:07:44;;;;;;;;;;;;;;;10.47;100.00;102312.69;5075494;28;19928;-57
2021/10/12 01:10:11;;;;;;;;;;;;;;;10.52;100.00;102301.13;5075559;28;19924;-57
2021/10/12 01:12:38;;;;;;;;;;;;;;;10.48;100.00;102301.25;5075439;28;19928;-58
2021/10/12 01:15:05;;;;;;;;;;;;;;;10.49;100.00;102299.47;5072549;28;20345;-57
2021/10/12 01:17:32;;;;;;;;;;;;;;;10.43;100.00;102292.69;5104807;28;19979;-57
2021/10/12 01:19:58;;;;;;;;;;;;;;;10.46;100.00;102291.72;5075563;28;19924;-57
2021/10/12 01:22:25;;;;;;;;;;;;;;;10.40;100.00;102284.06;5107737;28;19931;-57
2021/10/12 01:24:52;;;;;;;;;;;;;;;10.44;100.00;102280.38;5107782;28;19982;-57
2021/10/12 01:27:22;;;;;;;;;;;;;;;10.39;100.00;102277.09;5075348;28;20390;-57
2021/10/12 01:29:49;;;;;;;;;;;;;;;10.37;100.00;102277.16;5107395;28;19940;-58
2021/10/12 01:32:16;;;;;;;;;;;;;;;10.37;100.00;102266.63;5087620;28;19952;-58
2021/10/12 01:34:43;;;;;;;;;;;;;;;10.36;100.00;102258.81;5072980;28;19978;-57
2021/10/12 01:37:10;;;;;;;;;;;;;;;10.38;100.00;102259.63;5074984;28;19924;-57
2021/10/12 01:39:36;;;;;;;;;;;;;;;10.41;100.00;102262.13;5107302;28;19928;-58
2021/10/12 01:42:04;;;;;;;;;;;;;;;10.40;100.00;102263.03;5090517;28;19974;-59
2021/10/12 01:44:31;;;;;;;;;;;;;;;10.38;100.00;102260.47;5075082;28;19924;-58
2021/10/12 01:46:58;;;;;;;;;;;;;;;10.40;100.00;102263.03;5107448;28;20341;-58
2021/10/12 01:49:24;;;;;;;;;;;;;;;10.38;100.00;102263.09;5073865;28;19931;-57
2021/10/12 01:51:51;;;;;;;;;;;;;;;10.39;100.00;102256.03;5070694;28;19936;-58
2021/10/12 01:54:19;;;;;;;;;;;;;;;10.32;100.00;102242.25;5072918;28;20417;-57
2021/10/12 01:56:46;;;;;;;;;;;;;;;10.39;100.00;102230.63;5089977;28;19928;-58
2021/10/12 01:59:13;;;;;;;;;;;;;;;10.37;100.00;102231.59;5074127;28;19932;-58
2021/10/12 02:01:40;;;;;;;;;;;;;;;10.34;100.00;102226.44;5074367;28;19932;-58
2021/10/12 02:04:07;;;;;;;;;;;;;;;10.35;100.00;102218.53;5072154;28;19924;-58
2021/10/12 02:06:34;;;;;;;;;;;;;;;10.30;100.00;102218.66;5103962;28;19925;-58
2021/10/12 02:09:01;;;;;;;;;;;;;;;10.32;100.00;102215.97;5073114;28;19962;-58
2021/10/12 02:11:27;;;;;;;;;;;;;;;10.30;100.00;102213.41;5074176;28;19946;-58
2021/10/12 02:13:54;;;;;;;;;;;;;;;10.32;100.00;102211.59;5074334;28;19924;-58
2021/10/12 02:16:21;;;;;;;;;;;;;;;10.30;100.00;102200.25;5074340;28;19925;-58
2021/10/12 02:18:48;;;;;;;;;;;;;;;10.34;100.00;102202.78;5074007;28;20019;-48
2021/10/12 02:21:14;;;;;;;;;;;;;;;10.27;100.00;102205.66;5073890;28;20005;-44
2021/10/12 02:23:41;;;;;;;;;;;;;;;10.24;100.00;102202.28;5071843;28;20456;-51
2021/10/12 02:26:08;;;;;;;;;;;;;;;10.21;100.00;102203.31;5103223;28;20383;-50
2021/10/12 02:28:35;;;;;;;;;;;;;;;10.20;100.00;102196.31;5054783;28;19984;-53
2021/10/12 02:31:01;;;;;;;;;;;;;;;10.17;100.00;102196.47;5104171;28;19925;-48
2021/10/12 02:33:28;;;;;;;;;;;;;;;10.17;100.00;102196.47;5071651;28;19924;-52
2021/10/12 02:35:55;;;;;;;;;;;;;;;10.18;100.00;102200.78;5073974;28;19924;-50
2021/10/12 02:38:22;;;;;;;;;;;;;;;10.20;100.00;102206.84;5073773;28;19924;-58
2021/10/12 02:40:49;;;;;;;;;;;;;;;10.23;100.00;102211.97;5073784;28;19931;-58
2021/10/12 02:43:16;;;;;;;;;;;;;;;10.25;100.00;102204.88;5073571;28;19978;-58
2021/10/12 02:45:45;;;;;;;;;;;;;;;10.25;100.00;102204.88;5072726;28;20287;-53
2021/10/12 02:48:12;;;;;;;;;;;;;;;10.20;100.00;102195.44;5103338;28;19929;-46
2021/10/12 02:50:38;;;;;;;;;;;;;;;10.18;100.00;102190.25;5072494;28;19978;-47
2021/10/12 02:53:05;;;;;;;;;;;;;;;10.17;100.00;102185.94;5073595;28;19962;-45
2021/10/12 02:55:32;;;;;;;;;;;;;;;10.15;100.00;102182.50;5105725;28;19932;-57
2021/10/12 02:57:59;;;;;;;;;;;;;;;10.15;100.00;102169.38;5073534;28;20387;-51
2021/10/12 03:00:25;;;;;;;;;;;;;;;10.17;100.00;102166.66;5088979;28;19924;-51
2021/10/12 03:02:52;;;;;;;;;;;;;;;10.12;100.00;102156.38;5104933;28;19929;-48
2021/10/12 03:05:19;;;;;;;;;;;;;;;10.11;100.00;102152.00;5087272;28;19939;-50
2021/10/12 03:07:46;;;;;;;;;;;;;;;10.11;100.00;102150.22;5070453;28;20444;-49
2021/10/12 03:10:12;;;;;;;;;;;;;;;10.10;100.00;102148.53;5072926;28;19924;-57
2021/10/12 03:12:39;;;;;;;;;;;;;;;10.07;100.00;102143.41;5073299;28;20371;-57
2021/10/12 03:15:06;;;;;;;;;;;;;;;10.07;100.00;102146.03;5073300;28;19925;-57
2021/10/12 03:17:32;;;;;;;;;;;;;;;10.08;100.00;102139.00;5071732;28;19974;-50
2021/10/12 03:19:59;;;;;;;;;;;;;;;10.01;100.00;102132.28;5073323;28;19925;-49
2021/10/12 03:22:26;;;;;;;;;;;;;;;10.02;100.00;102128.75;5072733;28;19990;-50
2021/10/12 03:24:54;;;;;;;;;;;;;;;10.08;100.00;102124.09;5072206;28;19928;-52
2021/10/12 03:27:21;;;;;;;;;;;;;;;10.06;100.00;102122.44;5068485;28;19932;-49
2021/10/12 03:29:47;;;;;;;;;;;;;;;9.98;100.00;102118.38;5069499;28;19924;-51
2021/10/12 03:32:14;;;;;;;;;;;;;;;9.93;100.00;102114.22;5105378;28;20345;-45
2021/10/12 03:34:41;;;;;;;;;;;;;;;9.97;100.00;102107.91;5105209;28;19928;-57
2021/10/12 03:37:08;;;;;;;;;;;;;;;10.07;100.00;102108.38;5070201;28;19924;-57
2021/10/12 03:39:34;;;;;;;;;;;;;;;10.06;100.00;102111.91;5069839;28;19932;-45
2021/10/12 03:42:01;;;;;;;;;;;;;;;10.08;100.00;102107.47;5072746;28;19970;-47
2021/10/12 03:44:29;;;;;;;;;;;;;;;10.09;100.00;102101.28;5073018;28;19931;-57
2021/10/12 03:46:56;;;;;;;;;;;;;;;10.07;100.00;102100.50;5072943;28;20296;-56
2021/10/12 03:49:23;;;;;;;;;;;;;;;10.06;100.00;102088.25;5072745;28;19960;-57
2021/10/12 03:51:49;;;;;;;;;;;;;;;10.04;100.00;102087.50;5072674;28;19994;-57
2021/10/12 03:54:16;;;;;;;;;;;;;;;10.01;100.00;102084.97;5072451;28;20326;-58
2021/10/12 03:56:43;;;;;;;;;;;;;;;9.94;100.00;102077.38;5069280;28;19924;-58
2021/10/12 03:59:09;;;;;;;;;;;;;;;9.94;100.00;102074.75;5103453;28;20405;-57
2021/10/12 04:01:36;;;;;;;;;;;;;;;9.90;100.00;102070.53;5072355;28;19924;-57
2021/10/12 04:04:03;;;;;;;;;;;;;;;9.90;100.00;102069.69;5071999;28;19924;-56
2021/10/12 04:06:30;;;;;;;;;;;;;;;9.90;100.00;102072.31;5072314;28;19924;-57
2021/10/12 04:08:57;;;;;;;;;;;;;;;9.89;100.00;102083.75;5072037;28;20288;-57
2021/10/12 04:11:23;;;;;;;;;;;;;;;9.89;100.00;102076.72;5067928;28;19928;-56
2021/10/12 04:13:50;;;;;;;;;;;;;;;9.90;100.00;102069.69;5071665;28;19925;-52
2021/10/12 04:16:17;;;;;;;;;;;;;;;9.83;100.00;102069.09;5092082;28;20422;-57
2021/10/12 04:18:44;;;;;;;;;;;;;;;9.85;100.00;102076.91;5074173;28;19924;-57
2021/10/12 04:21:10;;;;;;;;;;;;;;;9.84;100.00;102068.16;5072771;28;20459;-57
2021/10/12 04:23:38;;;;;;;;;;;;;;;9.85;100.00;102064.63;5076113;28;19924;-49
2021/10/12 04:26:14;;;;;;;;;;;;;;;9.84;100.00;102064.69;5074961;28;19924;-48
2021/10/12 04:28:40;;;;;;;;;;;;;;;9.80;100.00;102056.06;5076337;28;19925;-46
2021/10/12 04:31:07;;;;;;;;;;;;;;;9.79;100.00;102060.47;5076235;28;19924;-57
2021/10/12 04:33:34;;;;;;;;;;;;;;;9.85;100.00;102051.47;5108116;28;19932;-57
2021/10/12 04:36:01;;;;;;;;;;;;;;;9.83;100.00;102050.72;5106011;28;20338;-57
2021/10/12 04:38:28;;;;;;;;;;;;;;;9.85;100.00;102050.63;5073758;28;20353;-57
2021/10/12 04:40:55;;;;;;;;;;;;;;;9.81;100.00;102039.41;5108556;28;19963;-57
2021/10/12 04:43:22;;;;;;;;;;;;;;;9.81;100.00;102037.59;5108547;28;20380;-57
2021/10/12 04:45:49;;;;;;;;;;;;;;;9.85;100.00;102040.97;5108501;28;19970;-57
2021/10/12 04:48:16;;;;;;;;;;;;;;;9.86;100.00;102039.19;5105820;28;19925;-48
2021/10/12 04:50:42;;;;;;;;;;;;;;;9.86;100.00;102034.81;5074324;28;20366;-48
2021/10/12 04:53:11;;;;;;;;;;;;;;;9.89;100.00;102033.81;5074347;28;19929;-49
2021/10/12 04:55:40;;;;;;;;;;;;;;;9.88;100.00;102022.44;5105223;28;19928;-47
2021/10/12 04:58:10;;;;;;;;;;;;;;;9.90;100.00;102027.66;5075040;28;20407;-46
2021/10/12 05:00:37;;;;;;;;;;;;;;;9.89;100.00;102028.56;5072545;28;19928;-46
2021/10/12 05:03:05;;;;;;;;;;;;;;;9.90;100.00;102025.03;5073462;28;19935;-49
2021/10/12 05:05:32;;;;;;;;;;;;;;;9.92;100.00;102021.38;5075764;28;20299;-58
2021/10/12 05:08:00;;;;;;;;;;;;;;;9.93;100.00;102024.88;5075582;28;19924;-57
2021/10/12 05:10:26;;;;;;;;;;;;;;;9.87;100.00;102025.13;5075792;28;20376;-57
2021/10/12 05:12:53;;;;;;;;;;;;;;;9.88;100.00;102024.22;5075719;28;20359;-58
2021/10/12 05:15:23;;;;;;;;;;;;;;;9.90;100.00;102022.41;5075061;28;20733;-58
2021/10/12 05:17:50;;;;;;;;;;;;;;;10.00;100.00;102020.22;5073035;28;19928;-48
2021/10/12 05:20:17;;;;;;;;;;;;;;;9.95;100.00;102010.75;5105985;28;19925;-49
2021/10/12 05:22:44;;;;;;;;;;;;;;;9.92;100.00;102012.66;5074156;28;19924;-47
2021/10/12 05:25:10;;;;;;;;;;;;;;;9.91;100.00;102008.31;5074259;28;20321;-46
2021/10/12 05:27:37;;;;;;;;;;;;;;;9.87;100.00;102004.13;5074007;28;20295;-49
2021/10/12 05:30:05;;;;;;;;;;;;;;;9.86;100.00;102002.41;5107626;28;19924;-45
2021/10/12 05:32:31;;;;;;;;;;;;;;;9.87;100.00;102005.00;5074477;28;20418;-50
2021/10/12 05:34:58;;;;;;;;;;;;;;;9.85;100.00;101992.84;5072925;28;19955;-46
2021/10/12 05:37:25;;;;;;;;;;;;;;;9.95;100.00;102000.25;5073671;28;19939;-47
2021/10/12 05:39:51;;;;;;;;;;;;;;;9.92;100.00;101995.09;5072570;28;19978;-48
2021/10/12 05:42:18;;;;;;;;;;;;;;;9.92;100.00;102007.41;5071036;28;19983;-47
2021/10/12 05:44:45;;;;;;;;;;;;;;;9.95;100.00;101988.88;5074801;28;19986;-46
2021/10/12 05:47:11;;;;;;;;;;;;;;;9.94;100.00;101990.66;5075049;28;20409;-44
2021/10/12 05:49:40;;;;;;;;;;;;;;;9.96;100.00;101990.56;5074812;28;19978;-50
2021/10/12 05:52:07;;;;;;;;;;;;;;;9.90;100.00;101991.69;5074864;28;19924;-48
2021/10/12 05:54:39;;;;;;;;;;;;;;;9.92;100.00;101997.72;5074636;28;19929;-57
2021/10/12 05:57:06;;;;;;;;;;;;;;;9.91;100.00;101989.91;5089745;28;19978;-45
2021/10/12 05:59:33;;;;;;;;;;;;;;;9.91;100.00;101982.91;5074816;28;19924;-45
2021/10/12 06:02:00;;;;;;;;;;;;;;;9.91;100.00;101980.28;5074693;28;19937;-57
2021/10/12 06:04:26;;;;;;;;;;;;;;;9.97;100.00;101973.91;5105160;28;20300;-57
2021/10/12 06:06:56;;;;;;;;;;;;;;;9.98;100.00;101971.19;5071551;28;19989;-57
2021/10/12 06:09:23;;;;;;;;;;;;;;;9.98;100.00;101978.25;5073612;28;19929;-57
2021/10/12 06:11:49;;;;;;;;;;;;;;;9.93;100.00;101973.16;5074196;28;19970;-57
2021/10/12 06:14:16;;;;;;;;;;;;;;;10.01;100.00;101971.97;5074293;28;19924;-57
2021/10/12 06:16:42;;;;;;;;;;;;;;;10.04;100.00;101974.47;5074303;28;19924;-57
2021/10/12 06:19:09;;;;;;;;;;;;;;;10.02;100.00;101977.19;5074361;28;19969;-58
2021/10/12 06:21:36;;;;;;;;;;;;;;;10.08;100.00;101963.75;5104418;28;19925;-57
2021/10/12 06:24:02;;;;;;;;;;;;;;;10.07;100.00;101969.06;5071504;28;19956;-57
2021/10/12 06:26:29;;;;;;;;;;;;;;;10.05;100.00;101970.91;5074138;28;19929;-58
2021/10/12 06:28:56;;;;;;;;;;;;;;;10.07;100.00;101967.28;5074092;28;20342;-58
2021/10/12 06:31:26;;;;;;;;;;;;;;;10.06;100.00;101964.72;5073879;28;19924;-57
2021/10/12 06:33:53;;;;;;;;;;;;;;;10.10;100.00;101951.41;5073946;28;19925;-58
2021/10/12 06:36:20;;;;;;;;;;;;;;;10.13;100.00;101951.25;5073180;28;19924;-57
2021/10/12 06:38:46;;;;;;;;;;;;;;;10.15;100.00;101956.44;5073261;28;19978;-58
2021/10/12 06:41:13;;;;;;;;;;;;;;;10.17;100.00;101961.63;5071220;28;19925;-56
2021/10/12 06:43:41;;;;;;;;;;;;;;;10.17;100.00;101957.22;5069096;28;20676;-58
2021/10/12 06:46:08;;;;;;;;;;;;;;;10.15;100.00;101952.03;5073792;28;19993;-57
2021/10/12 06:48:34;;;;;;;;;;;;;;;10.20;100.00;101956.22;5073777;28;20402;-56
2021/10/12 06:51:01;;;;;;;;;;;;;;;10.19;100.00;101952.75;5106099;28;19928;-57
2021/10/12 06:53:49;;;;;;;;;;;;;;;10.23;100.00;101953.47;5072425;28;20011;-57
2021/10/12 06:56:16;;;;;;;;;;;;;;;10.19;100.00;101949.28;5070659;28;19928;-58
2021/10/12 06:58:43;;;;;;;;;;;;;;;10.23;100.00;101954.31;5071349;28;20011;-57
2021/10/12 07:01:25;;;;;;;;;;;;;;;10.28;100.00;101956.72;5072472;28;19925;-57
2021/10/12 07:03:52;;;;;;;;;;;;;;;10.30;100.00;101952.25;5073509;28;20445;-57
2021/10/12 07:06:19;;;;;;;;;;;;;;;10.30;100.00;101945.19;5072165;28;19924;-57
2021/10/12 07:08:46;;;;;;;;;;;;;;;10.31;100.00;101952.16;5102176;28;19924;-57
2021/10/12 07:11:12;;;;;;;;;;;;;;;10.36;100.00;101952.00;5072075;28;19989;-57
2021/10/12 07:13:39;;;;;;;;;;;;;;;10.42;100.00;101949.06;5073032;28;19977;-58
2021/10/12 07:16:06;;;;;;;;;;;;;;;10.45;100.00;101948.09;5072973;28;19938;-57
2021/10/12 07:18:32;;;;;;;;;;;;;;;10.50;100.00;101946.09;5070685;28;20390;-57
2021/10/12 07:20:59;;;;;;;;;;;;;;;10.50;100.00;101951.34;5070436;28;19947;-57
2021/10/12 07:23:25;;;;;;;;;;;;;;;10.53;100.00;101948.56;5071000;28;19928;-57
2021/10/12 07:25:52;;;;;;;;;;;;;;;10.55;100.00;101946.75;5072978;28;19967;-57
2021/10/12 07:28:19;;;;;;;;;;;;;;;10.62;100.00;101942.88;5072141;28;19974;-57
2021/10/12 07:30:45;;;;;;;;;;;;;;;10.69;100.00;101943.44;5070416;28;20271;-57
2021/10/12 07:33:12;;;;;;;;;;;;;;;10.72;100.00;101937.19;5069509;28;19975;-57
2021/10/12 07:35:54;;;;;;;;;;;;;;;10.66;100.00;101935.66;5071659;28;19925;-56
2021/10/12 07:38:21;;;;;;;;;;;;;;;10.70;100.00;101936.38;5069515;28;19928;-57
2021/10/12 07:40:47;;;;;;;;;;;;;;;10.70;100.00;101936.38;5072671;28;19959;-58
2021/10/12 07:43:14;;;;;;;;;;;;;;;10.74;100.00;101930.88;5072862;28;19978;-57
2021/10/12 07:45:41;;;;;;;;;;;;;;;10.78;100.00;101937.75;5072158;28;19936;-58
2021/10/12 07:48:08;;;;;;;;;;;;;;;10.83;100.00;101935.72;5068611;28;19924;-57
2021/10/12 07:50:35;;;;;;;;;;;;;;;10.81;100.00;101931.44;5070246;28;19925;-57
2021/10/12 07:53:01;;;;;;;;;;;;;;;10.80;100.00;101924.50;5071009;28;20457;-56
2021/10/12 07:55:37;;;;;;;;;;;;;;;10.89;100.00;101931.91;5069263;28;19977;-57
2021/10/12 07:58:04;;;;;;;;;;;;;;;10.90;100.00;101925.75;5072612;28;19948;-57
2021/10/12 08:00:31;;;;;;;;;;;;;;;10.96;100.00;101919.31;5101375;28;19933;-58
2021/10/12 08:02:59;;;;;;;;;;;;;;;11.04;100.00;101919.78;5086880;28;19924;-57
2021/10/12 08:05:26;;;;;;;;;;;;;;;11.04;100.00;101924.22;5105049;28;19946;-57
2021/10/12 08:07:53;;;;;;;;;;;;;;;11.06;100.00;101917.94;5104955;28;19936;-57
2021/10/12 08:10:28;;;;;;;;;;;;;;;11.11;100.00;101913.31;5072619;28;19924;-57
2021/10/12 08:12:57;;;;;;;;;;;;;;;11.14;100.00;101912.31;5071360;28;19925;-58
2021/10/12 08:15:23;;;;;;;;;;;;;;;11.21;100.00;101908.41;5071510;28;19935;-57
2021/10/12 08:17:50;;;;;;;;;;;;;;;11.23;100.00;101909.19;5069986;28;19950;-59
2021/10/12 08:20:17;;;;;;;;;;;;;;;11.27;100.00;101912.50;5072163;28;20383;-57
2021/10/12 08:22:44;;;;;;;;;;;;;;;11.30;100.00;101902.69;5071895;28;19924;-57
2021/10/12 08:25:10;;;;;;;;;;;;;;;11.35;100.00;101907.69;5069617;28;19942;-57
2021/10/12 08:27:38;;;;;;;;;;;;;;;11.42;100.00;101913.50;5069281;28;19931;-57
2021/10/12 08:30:05;;;;;;;;;;;;;;;11.42;100.00;101911.72;5072455;28;20413;-56
2021/10/12 08:32:31;;;;;;;;;;;;;;;11.47;100.00;101907.06;5104853;28;20387;-57
2021/10/12 08:34:58;;;;;;;;;;;;;;;11.48;100.00;101908.78;5072117;28;19925;-57
2021/10/12 08:37:25;;;;;;;;;;;;;;;11.50;100.00;101906.06;5068826;28;19928;-55
2021/10/12 08:39:51;;;;;;;;;;;;;;;11.56;100.00;101908.38;5102499;28;20353;-57
2021/10/12 08:42:18;;;;;;;;;;;;;;;11.50;100.00;101906.91;5104998;28;20390;-48
2021/10/12 08:44:53;;;;;;;;;;;;;;;11.53;100.00;101919.06;5072240;28;19963;-50
2021/10/12 08:47:20;;;;;;;;;;;;;;;11.51;100.00;101915.69;5104638;28;19925;-51
2021/10/12 08:49:46;;;;;;;;;;;;;;;11.56;100.00;101910.16;5104723;28;19925;-53
2021/10/12 08:52:13;;;;;;;;;;;;;;;11.56;100.00;101900.47;5072433;28;19929;-53
2021/10/12 08:54:40;;;;;;;;;;;;;;;11.60;100.00;101895.88;5072240;28;19925;-53
2021/10/12 08:57:07;;;;;;;;;;;;;;;11.63;100.00;101896.59;5072179;28;19924;-52
2021/10/12 08:59:33;;;;;;;;;;;;;;;11.60;100.00;101902.03;5105424;28;19936;-50
2021/10/12 09:02:02;;;;;;;;;;;;;;;11.54;100.00;101891.78;5073584;28;20383;-47
2021/10/12 09:04:35;;;;;;;;;;;;;;;11.56;100.00;101891.72;5072477;28;20374;-47
2021/10/12 09:07:02;;;;;;;;;;;;;;;11.56;100.00;101884.69;5074447;28;20464;-51
2021/10/12 09:09:33;;;;;;;;;;;;;;;11.49;100.00;101885.91;5108056;28;19970;-48
2021/10/12 09:12:01;;;;;;;;;;;;;;;11.50;100.00;101883.19;5075691;28;19925;-50
2021/10/12 09:14:28;;;;;;;;;;;;;;;11.46;100.00;101881.66;5075606;28;19997;-57
2021/10/12 09:17:02;;;;;;;;;;;;;;;11.51;100.00;101878.78;5107630;28;19947;-56
2021/10/12 09:19:28;;;;;;;;;;;;;;;11.57;100.00;101873.19;5105186;28;19936;-50
2021/10/12 09:21:57;;;;;;;;;;;;;;;11.62;100.00;101872.97;5089270;28;19931;-50
2021/10/12 09:24:24;;;;;;;;;;;;;;;11.64;100.00;101876.34;5073747;28;19943;-50
2021/10/12 09:27:02;;;;;;;;;;;;;;;11.61;100.00;101865.97;5103875;28;19924;-49
2021/10/12 09:32:02;;;;;;;;;;;;;;;11.79;100.00;101859.72;5075319;28;19925;-57
2021/10/12 09:34:30;;;;;;;;;;;;;;;11.90;100.00;101860.91;5074044;28;20334;-57
2021/10/12 09:36:57;;;;;;;;;;;;;;;12.02;100.00;101862.91;5103967;28;19928;-56
2021/10/12 09:39:37;;;;;;;;;;;;;;;12.03;100.00;101861.97;5106455;28;19977;-56
2021/10/12 09:42:03;;;;;;;;;;;;;;;12.03;100.00;101864.63;5071487;28;20699;-49
2021/10/12 09:44:30;;;;;;;;;;;;;;;12.12;100.00;101868.53;5071839;28;19925;-57
2021/10/12 09:47:07;;;;;;;;;;;;;;;12.23;100.00;101855.59;5074825;28;20379;-48
2021/10/12 09:49:34;;;;;;;;;;;;;;;12.30;100.00;101859.59;5074865;28;20383;-50
2021/10/12 09:52:05;;;;;;;;;;;;;;;12.31;100.00;101856.03;5107158;28;20468;-57
2021/10/12 09:54:31;;;;;;;;;;;;;;;12.42;100.00;101850.13;5074366;28;19924;-57
2021/10/12 09:56:59;;;;;;;;;;;;;;;12.54;100.00;101845.09;5070557;28;20427;-48
2021/10/12 09:59:26;;;;;;;;;;;;;;;12.57;100.00;101845.78;5104618;28;19929;-46
2021/10/12 10:01:54;;;;;;;;;;;;;;;12.61;100.00;101849.94;5105887;28;20400;-50
2021/10/12 10:04:22;;;;;;;;;;;;;;;12.89;100.00;101852.75;5071562;28;19924;-52
2021/10/12 10:06:50;;;;;;;;;;;;;;;13.15;100.00;101845.91;5074056;28;20322;-49
2021/10/12 10:09:19;;;;;;;;;;;;;;;13.20;100.00;101846.50;5073326;28;20448;-47
2021/10/12 10:11:46;;;;;;;;;;;;;;;13.17;100.00;101847.53;5106330;28;19929;-48
2021/10/12 10:14:13;;;;;;;;;;;;;;;13.08;99.51;101844.59;5106862;28;19924;-48
2021/10/12 10:16:42;;;;;;;;;;;;;;;13.30;100.00;101837.03;5072570;28;19929;-49
2021/10/12 10:19:13;;;;;;;;;;;;;;;13.39;99.91;101840.09;5071861;28;19924;-47
2021/10/12 10:21:42;;;;;;;;;;;;;;;13.40;96.70;101833.88;5074457;28;19925;-48
2021/10/12 10:24:11;;;;;;;;;;;;;;;13.37;97.97;101831.44;5074295;28;20283;-47
2021/10/12 10:26:38;;;;;;;;;;;;;;;13.42;97.79;101832.00;5105738;28;19970;-50
2021/10/12 10:29:17;;;;;;;;;;;;;;;13.34;96.39;101833.28;5071869;28;19928;-48
2021/10/12 10:31:46;;;;;;;;;;;;;;;13.32;95.40;101824.59;5071489;28;19928;-51
2021/10/12 10:34:32;;;;;;;;;;;;;;;13.38;95.65;101827.84;5074021;28;19973;-51
2021/10/12 10:37:16;;;;;;;;;;;;;;;13.49;95.12;101820.94;5074087;28;19939;-50
2021/10/12 10:39:44;;;;;;;;;;;;;;;13.77;95.89;101816.59;5106077;28;19925;-47
2021/10/12 10:42:41;;;;;;;;;;;;;;;13.92;92.81;101808.63;5073747;28;20387;-49
2021/10/12 10:45:08;;;;;;;;;;;;;;;14.01;92.97;101808.03;5064695;28;20321;-47
2021/10/12 10:47:41;;;;;;;;;;;;;;;14.03;94.50;101817.56;5071974;28;20537;-51
2021/10/12 10:50:17;;;;;;;;;;;;;;;13.98;93.24;101814.34;5073429;28;19932;-50
2021/10/12 10:52:45;;;;;;;;;;;;;;;13.89;92.51;101816.75;5073736;28;19934;-51
2021/10/12 10:55:22;;;;;;;;;;;;;;;13.83;93.15;101818.84;5103044;28;19928;-50
2021/10/12 10:58:06;;;;;;;;;;;;;;;13.76;92.33;101808.75;5070324;28;20358;-57
2021/10/12 11:00:36;;;;;;;;;;;;;;;13.78;90.81;101806.84;5073460;28;19986;-56
2021/10/12 11:03:03;;;;;;;;;;;;;;;14.11;89.71;101806.50;5073060;28;19936;-59
2021/10/12 11:05:40;;;;;;;;;;;;;;;14.51;89.77;101803.03;5073270;28;20590;-56
2021/10/12 11:08:06;;;;;;;;;;;;;;;14.68;88.33;101801.91;5073307;28;19933;-56
2021/10/12 11:10:35;;;;;;;;;;;;;;;14.63;88.42;101798.72;5073330;28;19928;-57
2021/10/12 11:13:02;;;;;;;;;;;;;;;14.39;87.98;101807.31;5073548;28;19924;-56
2021/10/12 11:15:29;;;;;;;;;;;;;;;14.37;87.31;101812.72;5073028;28;20298;-57
2021/10/12 11:18:08;;;;;;;;;;;;;;;14.57;86.32;101802.59;5073223;28;19928;-56
2021/10/12 11:20:41;;;;;;;;;;;;;;;14.53;87.38;101804.63;5105680;28;19935;-58
2021/10/12 11:23:09;;;;;;;;;;;;;;;14.76;86.32;101804.88;5087839;28;19970;-57
2021/10/12 11:25:36;;;;;;;;;;;;;;;14.88;85.16;101801.41;5072848;28;19978;-52
2021/10/12 11:28:06;;;;;;;;;;;;;;;14.83;86.19;101795.59;5105389;28;19928;-51
2021/10/12 11:30:34;;;;;;;;;;;;;;;14.76;86.62;101796.09;5073039;28;19931;-56
2021/10/12 11:33:04;;;;;;;;;;;;;;;14.60;87.90;101799.78;5072955;28;19940;-57
2021/10/12 11:35:37;;;;;;;;;;;;;;;14.44;88.40;101797.28;5072961;28;20023;-48
2021/10/12 11:38:05;;;;;;;;;;;;;;;14.50;87.71;101810.09;5072421;28;20008;-50
2021/10/12 11:40:33;;;;;;;;;;;;;;;14.51;88.62;101813.63;5101993;28;19924;-50
2021/10/12 11:42:59;;;;;;;;;;;;;;;14.64;89.27;101813.66;5069407;28;19924;-53
2021/10/12 11:45:27;;;;;;;;;;;;;;;14.51;87.63;101817.09;5104905;28;19924;-52
2021/10/12 11:47:54;;;;;;;;;;;;;;;14.44;86.78;101820.25;5104805;28;19924;-50
2021/10/12 11:50:22;;;;;;;;;;;;;;;14.66;87.11;101819.72;5070991;28;19931;-50
2021/10/12 11:52:53;;;;;;;;;;;;;;;15.01;86.46;101814.66;5069718;28;19931;-56
2021/10/12 11:55:24;;;;;;;;;;;;;;;15.32;85.77;101817.00;5071721;28;19939;-57
2021/10/12 11:57:51;;;;;;;;;;;;;;;15.38;83.06;101821.88;5068546;28;19924;-57
2021/10/12 12:00:34;;;;;;;;;;;;;;;15.34;81.69;101812.44;5070121;28;19970;-57
2021/10/12 12:03:13;;;;;;;;;;;;;;;15.24;79.93;101816.69;5071498;28;19924;-58
2021/10/12 12:05:47;;;;;;;;;;;;;;;15.01;78.14;101812.03;5072218;28;20010;-58
2021/10/12 12:08:14;;;;;;;;;;;;;;;15.09;77.50;101810.63;5101853;28;20027;-58
2021/10/12 12:10:41;;;;;;;;;;;;;;;15.42;75.72;101812.75;5069011;28;20379;-56
2021/10/12 12:13:10;;;;;;;;;;;;;;;15.83;75.98;101811.63;5072660;28;20391;-51
2021/10/12 12:15:38;;;;;;;;;;;;;;;15.42;74.38;101811.88;5104165;28;19990;-48
2021/10/12 12:18:14;;;;;;;;;;;;;;;15.38;76.34;101808.63;5072103;28;19947;-48
2021/10/12 12:20:51;;;;;;;;;;;;;;;15.13;74.49;101812.97;5072310;28;19947;-57
2021/10/12 12:23:34;;;;;;;;;;;;;;;15.30;74.18;101811.81;5072645;28;19925;-53
2021/10/12 12:26:01;;;;;;;;;;;;;;;15.46;75.33;101811.59;5072525;28;20360;-57
2021/10/12 12:28:29;;;;;;;;;;;;;;;15.65;74.56;101805.81;5104641;28;19979;-55
2021/10/12 12:30:55;;;;;;;;;;;;;;;15.96;73.29;101800.97;5104630;28;19924;-58
2021/10/12 12:33:22;;;;;;;;;;;;;;;16.13;70.92;101806.84;5072816;28;19929;-57
2021/10/12 12:35:50;;;;;;;;;;;;;;;16.13;71.45;101812.13;5074966;28;19924;-48
2021/10/12 12:38:24;;;;;;;;;;;;;;;16.01;68.08;101809.44;5091714;28;19974;-57